sensor_id;sensor_type;location;lat;lon;timestamp;pressure;altitude;pressure_sealevel;temperature
40245;BMP280;25963;42.694;23.600;2024-02-21T00:00:34;95847.34;;;5.15
40245;BMP280;25963;42.694;23.600;2024-02-21T00:02:59;95845.47;;;5.16
40245;BMP280;25963;42.694;23.600;2024-02-21T00:05:27;95840.84;;;5.03
40245;BMP280;25963;42.694;23.600;2024-02-21T00:07:52;95846.47;;;5.05
40245;BMP280;25963;42.694;23.600;2024-02-21T00:10:18;95829.94;;;5.01
40245;BMP280;25963;42.694;23.600;2024-02-21T00:12:43;95845.75;;;5.05
40245;BMP280;25963;42.694;23.600;2024-02-21T00:15:09;95844.25;;;5.04
40245;BMP280;25963;42.694;23.600;2024-02-21T00:17:34;95837.88;;;5.01
40245;BMP280;25963;42.694;23.600;2024-02-21T00:20:00;95786.84;;;4.56
40245;BMP280;25963;42.694;23.600;2024-02-21T00:22:25;95836.81;;;4.99
40245;BMP280;25963;42.694;23.600;2024-02-21T00:24:54;95840.28;;;4.96
40245;BMP280;25963;42.694;23.600;2024-02-21T00:27:19;95835.00;;;4.96
40245;BMP280;25963;42.694;23.600;2024-02-21T00:29:44;95837.56;;;4.99
40245;BMP280;25963;42.694;23.600;2024-02-21T00:32:10;95831.59;;;4.95
40245;BMP280;25963;42.694;23.600;2024-02-21T00:34:35;95833.56;;;4.91
40245;BMP280;25963;42.694;23.600;2024-02-21T00:37:01;95814.34;;;4.75
40245;BMP280;25963;42.694;23.600;2024-02-21T00:39:26;95832.97;;;4.87
40245;BMP280;25963;42.694;23.600;2024-02-21T00:41:51;95801.66;;;4.70
40245;BMP280;25963;42.694;23.600;2024-02-21T00:44:17;95826.59;;;4.85
40245;BMP280;25963;42.694;23.600;2024-02-21T00:46:42;95836.41;;;4.84
40245;BMP280;25963;42.694;23.600;2024-02-21T00:49:08;95831.88;;;4.85
40245;BMP280;25963;42.694;23.600;2024-02-21T00:51:33;95824.03;;;4.81
40245;BMP280;25963;42.694;23.600;2024-02-21T00:53:59;95827.75;;;4.84
40245;BMP280;25963;42.694;23.600;2024-02-21T00:56:24;95825.84;;;4.84
40245;BMP280;25963;42.694;23.600;2024-02-21T00:58:49;95819.81;;;4.84
40245;BMP280;25963;42.694;23.600;2024-02-21T01:01:21;95810.53;;;4.76
40245;BMP280;25963;42.694;23.600;2024-02-21T01:03:47;95821.69;;;4.83
40245;BMP280;25963;42.694;23.600;2024-02-21T01:06:13;95822.13;;;4.82
40245;BMP280;25963;42.694;23.600;2024-02-21T01:08:38;95809.66;;;4.82
40245;BMP280;25963;42.694;23.600;2024-02-21T01:11:04;95805.84;;;4.83
40245;BMP280;25963;42.694;23.600;2024-02-21T01:13:29;95805.84;;;4.83
40245;BMP280;25963;42.694;23.600;2024-02-21T01:15:54;95805.84;;;4.83
40245;BMP280;25963;42.694;23.600;2024-02-21T01:18:20;95799.47;;;4.81
40245;BMP280;25963;42.694;23.600;2024-02-21T01:20:45;95805.44;;;4.85
40245;BMP280;25963;42.694;23.600;2024-02-21T01:23:10;95783.88;;;4.70
40245;BMP280;25963;42.694;23.600;2024-02-21T01:25:36;95802.78;;;4.85
40245;BMP280;25963;42.694;23.600;2024-02-21T01:28:01;95773.59;;;4.72
40245;BMP280;25963;42.694;23.600;2024-02-21T01:30:27;95738.06;;;4.44
40245;BMP280;25963;42.694;23.600;2024-02-21T01:32:52;95796.81;;;4.81
40245;BMP280;25963;42.694;23.600;2024-02-21T01:35:17;95800.28;;;4.78
40245;BMP280;25963;42.694;23.600;2024-02-21T01:37:43;95765.84;;;4.53
40245;BMP280;25963;42.694;23.600;2024-02-21T01:40:09;95805.59;;;4.78
40245;BMP280;25963;42.694;23.600;2024-02-21T01:42:38;95773.38;;;4.67
40245;BMP280;25963;42.694;23.600;2024-02-21T01:45:05;95785.91;;;4.79
40245;BMP280;25963;42.694;23.600;2024-02-21T01:47:30;95787.41;;;4.80
40245;BMP280;25963;42.694;23.600;2024-02-21T01:49:56;95777.41;;;4.71
40245;BMP280;25963;42.694;23.600;2024-02-21T01:52:21;95789.00;;;4.77
40245;BMP280;25963;42.694;23.600;2024-02-21T01:54:47;95754.63;;;4.61
40245;BMP280;25963;42.694;23.600;2024-02-21T01:57:13;95779.56;;;4.76
40245;BMP280;25963;42.694;23.600;2024-02-21T01:59:40;95736.41;;;4.34
40245;BMP280;25963;42.694;23.600;2024-02-21T02:02:05;95780.25;;;4.64
40245;BMP280;25963;42.694;23.600;2024-02-21T02:04:31;95790.50;;;4.62
40245;BMP280;25963;42.694;23.600;2024-02-21T02:06:57;95784.13;;;4.60
40245;BMP280;25963;42.694;23.600;2024-02-21T02:09:25;95792.81;;;4.60
40245;BMP280;25963;42.694;23.600;2024-02-21T02:11:50;95786.09;;;4.56
40245;BMP280;25963;42.694;23.600;2024-02-21T02:14:16;95795.13;;;4.58
40245;BMP280;25963;42.694;23.600;2024-02-21T02:16:41;95789.69;;;4.49
40245;BMP280;25963;42.694;23.600;2024-02-21T02:19:07;95795.53;;;4.57
40245;BMP280;25963;42.694;23.600;2024-02-21T02:21:36;95780.59;;;4.50
40245;BMP280;25963;42.694;23.600;2024-02-21T02:24:05;95790.16;;;4.60
40245;BMP280;25963;42.694;23.600;2024-02-21T02:26:30;95788.69;;;4.59
40245;BMP280;25963;42.694;23.600;2024-02-21T02:28:55;95784.97;;;4.57
40245;BMP280;25963;42.694;23.600;2024-02-21T02:31:21;95773.09;;;4.49
40245;BMP280;25963;42.694;23.600;2024-02-21T02:33:46;95782.63;;;4.59
40245;BMP280;25963;42.694;23.600;2024-02-21T02:36:13;95773.75;;;4.53
40245;BMP280;25963;42.694;23.600;2024-02-21T02:38:38;95711.34;;;4.10
40245;BMP280;25963;42.694;23.600;2024-02-21T02:41:04;95762.84;;;4.51
40245;BMP280;25963;42.694;23.600;2024-02-21T02:43:29;95774.47;;;4.53
40245;BMP280;25963;42.694;23.600;2024-02-21T02:45:54;95775.13;;;4.57
40245;BMP280;25963;42.694;23.600;2024-02-21T02:48:21;95775.47;;;4.59
40245;BMP280;25963;42.694;23.600;2024-02-21T02:50:46;95780.34;;;4.61
40245;BMP280;25963;42.694;23.600;2024-02-21T02:53:11;95757.16;;;4.52
40245;BMP280;25963;42.694;23.600;2024-02-21T02:55:37;95770.59;;;4.58
40245;BMP280;25963;42.694;23.600;2024-02-21T02:58:02;95779.16;;;4.62
40245;BMP280;25963;42.694;23.600;2024-02-21T03:00:28;95752.75;;;4.46
40245;BMP280;25963;42.694;23.600;2024-02-21T03:02:56;95753.50;;;4.46
40245;BMP280;25963;42.694;23.600;2024-02-21T03:05:22;95707.13;;;4.13
40245;BMP280;25963;42.694;23.600;2024-02-21T03:07:48;95762.94;;;4.47
40245;BMP280;25963;42.694;23.600;2024-02-21T03:10:14;95780.41;;;4.57
40245;BMP280;25963;42.694;23.600;2024-02-21T03:12:41;95731.53;;;4.17
40245;BMP280;25963;42.694;23.600;2024-02-21T03:15:07;95730.47;;;4.14
40245;BMP280;25963;42.694;23.600;2024-02-21T03:17:33;95781.25;;;4.54
40245;BMP280;25963;42.694;23.600;2024-02-21T03:20:04;95785.47;;;4.52
40245;BMP280;25963;42.694;23.600;2024-02-21T03:22:34;95790.78;;;4.52
40245;BMP280;25963;42.694;23.600;2024-02-21T03:25:00;95735.03;;;4.14
40245;BMP280;25963;42.694;23.600;2024-02-21T03:27:25;95787.81;;;4.50
40245;BMP280;25963;42.694;23.600;2024-02-21T03:29:50;95768.03;;;4.38
40245;BMP280;25963;42.694;23.600;2024-02-21T03:32:16;95785.16;;;4.50
40245;BMP280;25963;42.694;23.600;2024-02-21T03:34:41;95774.09;;;4.38
40245;BMP280;25963;42.694;23.600;2024-02-21T03:37:06;95803.72;;;4.46
40245;BMP280;25963;42.694;23.600;2024-02-21T03:39:34;95793.97;;;4.43
40245;BMP280;25963;42.694;23.600;2024-02-21T03:42:00;95800.09;;;4.40
40245;BMP280;25963;42.694;23.600;2024-02-21T03:44:33;95803.88;;;4.39
40245;BMP280;25963;42.694;23.600;2024-02-21T03:46:59;95805.81;;;4.38
40245;BMP280;25963;42.694;23.600;2024-02-21T03:49:25;95799.75;;;4.38
40245;BMP280;25963;42.694;23.600;2024-02-21T03:51:50;95799.22;;;4.30
40245;BMP280;25963;42.694;23.600;2024-02-21T03:54:16;95814.63;;;4.32
40245;BMP280;25963;42.694;23.600;2024-02-21T03:56:41;95801.22;;;4.23
40245;BMP280;25963;42.694;23.600;2024-02-21T03:59:07;95802.25;;;4.29
40245;BMP280;25963;42.694;23.600;2024-02-21T04:01:34;95698.31;;;3.51
40245;BMP280;25963;42.694;23.600;2024-02-21T04:03:59;95805.31;;;4.27
40245;BMP280;25963;42.694;23.600;2024-02-21T04:06:24;95803.81;;;4.26
40245;BMP280;25963;42.694;23.600;2024-02-21T04:08:50;95814.38;;;4.26
40245;BMP280;25963;42.694;23.600;2024-02-21T04:11:15;95811.75;;;4.26
40245;BMP280;25963;42.694;23.600;2024-02-21T04:13:42;95811.31;;;4.28
40245;BMP280;25963;42.694;23.600;2024-02-21T04:16:07;95767.06;;;4.00
40245;BMP280;25963;42.694;23.600;2024-02-21T04:18:33;95804.88;;;4.29
40245;BMP280;25963;42.694;23.600;2024-02-21T04:20:58;95803.00;;;4.29
40245;BMP280;25963;42.694;23.600;2024-02-21T04:23:24;95786.28;;;4.16
40245;BMP280;25963;42.694;23.600;2024-02-21T04:25:49;95802.41;;;4.22
40245;BMP280;25963;42.694;23.600;2024-02-21T04:28:14;95803.00;;;4.29
40245;BMP280;25963;42.694;23.600;2024-02-21T04:30:40;95807.53;;;4.29
40245;BMP280;25963;42.694;23.600;2024-02-21T04:33:05;95803.38;;;4.28
40245;BMP280;25963;42.694;23.600;2024-02-21T04:35:30;95803.88;;;4.23
40245;BMP280;25963;42.694;23.600;2024-02-21T04:37:56;95800.41;;;4.26
40245;BMP280;25963;42.694;23.600;2024-02-21T04:40:21;95803.88;;;4.23
40245;BMP280;25963;42.694;23.600;2024-02-21T04:42:47;95786.06;;;4.11
40245;BMP280;25963;42.694;23.600;2024-02-21T04:45:12;95810.34;;;4.22
40245;BMP280;25963;42.694;23.600;2024-02-21T04:47:38;95800.22;;;4.17
40245;BMP280;25963;42.694;23.600;2024-02-21T04:50:03;95790.00;;;4.03
40245;BMP280;25963;42.694;23.600;2024-02-21T04:52:28;95797.34;;;4.11
40245;BMP280;25963;42.694;23.600;2024-02-21T04:54:55;95817.03;;;4.10
40245;BMP280;25963;42.694;23.600;2024-02-21T04:57:21;95814.78;;;4.09
40245;BMP280;25963;42.694;23.600;2024-02-21T04:59:47;95808.81;;;4.05
40245;BMP280;25963;42.694;23.600;2024-02-21T05:02:13;95810.28;;;4.06
40245;BMP280;25963;42.694;23.600;2024-02-21T05:04:38;95708.84;;;3.35
40245;BMP280;25963;42.694;23.600;2024-02-21T05:07:05;95807.00;;;4.02
40245;BMP280;25963;42.694;23.600;2024-02-21T05:09:31;95805.09;;;4.02
40245;BMP280;25963;42.694;23.600;2024-02-21T05:11:56;95752.81;;;3.61
40245;BMP280;25963;42.694;23.600;2024-02-21T05:14:24;95802.84;;;4.01
40245;BMP280;25963;42.694;23.600;2024-02-21T05:16:49;95810.06;;;4.00
40245;BMP280;25963;42.694;23.600;2024-02-21T05:19:15;95808.22;;;3.97
40245;BMP280;25963;42.694;23.600;2024-02-21T05:21:40;95813.84;;;3.99
40245;BMP280;25963;42.694;23.600;2024-02-21T05:24:05;95813.84;;;3.99
40245;BMP280;25963;42.694;23.600;2024-02-21T05:26:32;95820.28;;;3.98
40245;BMP280;25963;42.694;23.600;2024-02-21T05:28:57;95822.16;;;3.98
40245;BMP280;25963;42.694;23.600;2024-02-21T05:31:24;95822.91;;;3.98
40245;BMP280;25963;42.694;23.600;2024-02-21T05:33:49;95802.03;;;3.88
40245;BMP280;25963;42.694;23.600;2024-02-21T05:36:15;95795.41;;;3.80
40245;BMP280;25963;42.694;23.600;2024-02-21T05:38:40;95822.53;;;4.00
40245;BMP280;25963;42.694;23.600;2024-02-21T05:41:06;95835.31;;;4.01
40245;BMP280;25963;42.694;23.600;2024-02-21T05:43:31;95823.19;;;4.04
40245;BMP280;25963;42.694;23.600;2024-02-21T05:45:57;95823.50;;;4.06
40245;BMP280;25963;42.694;23.600;2024-02-21T05:48:23;95763.63;;;3.67
40245;BMP280;25963;42.694;23.600;2024-02-21T05:50:49;95820.16;;;4.05
40245;BMP280;25963;42.694;23.600;2024-02-21T05:53:14;95828.72;;;4.09
40245;BMP280;25963;42.694;23.600;2024-02-21T05:55:40;95827.59;;;4.10
40245;BMP280;25963;42.694;23.600;2024-02-21T05:58:05;95836.31;;;4.07
40245;BMP280;25963;42.694;23.600;2024-02-21T06:00:34;95842.00;;;4.06
40245;BMP280;25963;42.694;23.600;2024-02-21T06:02:59;95842.34;;;4.08
40245;BMP280;25963;42.694;23.600;2024-02-21T06:05:25;95845.31;;;4.10
40245;BMP280;25963;42.694;23.600;2024-02-21T06:07:50;95844.63;;;4.06
40245;BMP280;25963;42.694;23.600;2024-02-21T06:10:16;95844.72;;;4.02
40245;BMP280;25963;42.694;23.600;2024-02-21T06:12:41;95845.06;;;4.04
40245;BMP280;25963;42.694;23.600;2024-02-21T06:15:07;95823.47;;;3.90
40245;BMP280;25963;42.694;23.600;2024-02-21T06:17:32;95847.75;;;4.01
40245;BMP280;25963;42.694;23.600;2024-02-21T06:19:58;95815.84;;;3.75
40245;BMP280;25963;42.694;23.600;2024-02-21T06:22:23;95867.22;;;4.10
40245;BMP280;25963;42.694;23.600;2024-02-21T06:24:49;95866.63;;;4.19
40245;BMP280;25963;42.694;23.600;2024-02-21T06:27:14;95871.19;;;4.34
40245;BMP280;25963;42.694;23.600;2024-02-21T06:29:41;95865.53;;;4.52
40245;BMP280;25963;42.694;23.600;2024-02-21T06:32:06;95865.09;;;4.54
40245;BMP280;25963;42.694;23.600;2024-02-21T06:34:32;95813.63;;;4.26
40245;BMP280;25963;42.694;23.600;2024-02-21T06:36:57;95879.09;;;4.70
40245;BMP280;25963;42.694;23.600;2024-02-21T06:39:23;95882.88;;;4.69
40245;BMP280;25963;42.694;23.600;2024-02-21T06:41:48;95887.50;;;4.65
40245;BMP280;25963;42.694;23.600;2024-02-21T06:44:18;95883.78;;;4.63
40245;BMP280;25963;42.694;23.600;2024-02-21T06:46:43;95834.34;;;4.11
40245;BMP280;25963;42.694;23.600;2024-02-21T06:49:09;95866.53;;;4.22
40245;BMP280;25963;42.694;23.600;2024-02-21T06:51:34;95878.56;;;4.43
40245;BMP280;25963;42.694;23.600;2024-02-21T06:54:02;95897.56;;;4.54
40245;BMP280;25963;42.694;23.600;2024-02-21T06:56:27;95888.00;;;4.60
40245;BMP280;25963;42.694;23.600;2024-02-21T06:58:57;95891.66;;;4.66
40245;BMP280;25963;42.694;23.600;2024-02-21T07:01:24;95900.06;;;4.77
40245;BMP280;25963;42.694;23.600;2024-02-21T07:03:49;95896.50;;;4.84
40245;BMP280;25963;42.694;23.600;2024-02-21T07:06:15;95901.13;;;4.96
40245;BMP280;25963;42.694;23.600;2024-02-21T07:08:40;95901.94;;;5.09
40245;BMP280;25963;42.694;23.600;2024-02-21T07:11:05;95896.06;;;5.18
40245;BMP280;25963;42.694;23.600;2024-02-21T07:13:32;95886.59;;;5.33
40245;BMP280;25963;42.694;23.600;2024-02-21T07:15:58;95805.84;;;4.83
40245;BMP280;25963;42.694;23.600;2024-02-21T07:18:23;95898.56;;;5.66
40245;BMP280;25963;42.694;23.600;2024-02-21T07:20:50;95879.31;;;5.65
40245;BMP280;25963;42.694;23.600;2024-02-21T07:23:16;95887.28;;;5.78
40245;BMP280;25963;42.694;23.600;2024-02-21T07:25:41;95892.19;;;6.05
40245;BMP280;25963;42.694;23.600;2024-02-21T07:28:06;95902.28;;;6.22
40245;BMP280;25963;42.694;23.600;2024-02-21T07:30:32;95900.13;;;6.30
40245;BMP280;25963;42.694;23.600;2024-02-21T07:32:57;95904.28;;;6.43
40245;BMP280;25963;42.694;23.600;2024-02-21T07:35:23;95901.00;;;6.52
40245;BMP280;25963;42.694;23.600;2024-02-21T07:37:48;95897.13;;;6.66
40245;BMP280;25963;42.694;23.600;2024-02-21T07:40:14;95893.63;;;6.69
40245;BMP280;25963;42.694;23.600;2024-02-21T07:42:40;95900.41;;;6.82
40245;BMP280;25963;42.694;23.600;2024-02-21T07:45:07;95899.03;;;6.90
40245;BMP280;25963;42.694;23.600;2024-02-21T07:47:33;95893.38;;;7.01
40245;BMP280;25963;42.694;23.600;2024-02-21T07:49:58;95892.69;;;7.09
40245;BMP280;25963;42.694;23.600;2024-02-21T07:52:23;95899.88;;;7.21
40245;BMP280;25963;42.694;23.600;2024-02-21T07:54:50;95890.81;;;7.32
40245;BMP280;25963;42.694;23.600;2024-02-21T07:57:15;95896.38;;;7.46
40245;BMP280;25963;42.694;23.600;2024-02-21T07:59:40;95894.84;;;7.58
40245;BMP280;25963;42.694;23.600;2024-02-21T08:02:06;95859.09;;;7.50
40245;BMP280;25963;42.694;23.600;2024-02-21T08:04:32;95881.84;;;7.81
40245;BMP280;25963;42.694;23.600;2024-02-21T08:06:57;95908.78;;;8.23
40245;BMP280;25963;42.694;23.600;2024-02-21T08:09:26;95867.38;;;8.22
40245;BMP280;25963;42.694;23.600;2024-02-21T08:11:56;95876.47;;;8.43
40245;BMP280;25963;42.694;23.600;2024-02-21T08:14:22;95803.97;;;8.12
40245;BMP280;25963;42.694;23.600;2024-02-21T08:16:50;95868.38;;;8.55
40245;BMP280;25963;42.694;23.600;2024-02-21T08:19:15;95908.06;;;8.90
40245;BMP280;25963;42.694;23.600;2024-02-21T08:21:41;95895.63;;;8.87
40245;BMP280;25963;42.694;23.600;2024-02-21T08:24:06;95843.84;;;8.60
40245;BMP280;25963;42.694;23.600;2024-02-21T08:26:32;95889.84;;;8.97
40245;BMP280;25963;42.694;23.600;2024-02-21T08:28:57;95861.31;;;8.80
40245;BMP280;25963;42.694;23.600;2024-02-21T08:31:25;95888.38;;;9.14
40245;BMP280;25963;42.694;23.600;2024-02-21T08:33:59;95886.75;;;9.08
40245;BMP280;25963;42.694;23.600;2024-02-21T08:36:28;95888.56;;;9.02
40245;BMP280;25963;42.694;23.600;2024-02-21T08:38:53;95866.94;;;8.82
40245;BMP280;25963;42.694;23.600;2024-02-21T08:41:19;95844.56;;;8.61
40245;BMP280;25963;42.694;23.600;2024-02-21T08:43:44;95890.16;;;9.08
40245;BMP280;25963;42.694;23.600;2024-02-21T08:46:09;95837.19;;;8.65
40245;BMP280;25963;42.694;23.600;2024-02-21T08:48:35;95891.19;;;9.11
40245;BMP280;25963;42.694;23.600;2024-02-21T08:51:00;95893.41;;;9.21
40245;BMP280;25963;42.694;23.600;2024-02-21T08:53:27;95859.25;;;8.93
40245;BMP280;25963;42.694;23.600;2024-02-21T08:55:53;95877.28;;;9.25
40245;BMP280;25963;42.694;23.600;2024-02-21T08:58:19;95888.38;;;9.23
40245;BMP280;25963;42.694;23.600;2024-02-21T09:00:46;95883.31;;;9.43
40245;BMP280;25963;42.694;23.600;2024-02-21T09:03:11;95885.97;;;9.52
40245;BMP280;25963;42.694;23.600;2024-02-21T09:05:37;95864.94;;;9.64
40245;BMP280;25963;42.694;23.600;2024-02-21T09:08:02;95882.56;;;10.03
40245;BMP280;25963;42.694;23.600;2024-02-21T09:10:29;95881.31;;;10.22
40245;BMP280;25963;42.694;23.600;2024-02-21T09:12:54;95840.13;;;10.14
40245;BMP280;25963;42.694;23.600;2024-02-21T09:15:21;95870.97;;;10.62
40245;BMP280;25963;42.694;23.600;2024-02-21T09:17:46;95878.41;;;10.82
40245;BMP280;25963;42.694;23.600;2024-02-21T09:20:11;95876.84;;;10.75
40245;BMP280;25963;42.694;23.600;2024-02-21T09:22:37;95874.31;;;10.95
40245;BMP280;25963;42.694;23.600;2024-02-21T09:25:05;95838.97;;;10.77
40245;BMP280;25963;42.694;23.600;2024-02-21T09:27:31;95879.94;;;10.97
40245;BMP280;25963;42.694;23.600;2024-02-21T09:29:56;95888.94;;;10.85
40245;BMP280;25963;42.694;23.600;2024-02-21T09:32:21;95882.75;;;10.79
40245;BMP280;25963;42.694;23.600;2024-02-21T09:34:47;95874.06;;;10.70
40245;BMP280;25963;42.694;23.600;2024-02-21T09:37:12;95878.09;;;10.65
40245;BMP280;25963;42.694;23.600;2024-02-21T09:39:38;95875.38;;;10.51
40245;BMP280;25963;42.694;23.600;2024-02-21T09:42:06;95888.00;;;10.50
40245;BMP280;25963;42.694;23.600;2024-02-21T09:44:36;95878.78;;;10.51
40245;BMP280;25963;42.694;23.600;2024-02-21T09:47:10;95883.31;;;10.60
40245;BMP280;25963;42.694;23.600;2024-02-21T09:49:40;95876.53;;;10.59
40245;BMP280;25963;42.694;23.600;2024-02-21T09:52:07;95885.56;;;10.52
40245;BMP280;25963;42.694;23.600;2024-02-21T09:54:33;95884.69;;;10.55
40245;BMP280;25963;42.694;23.600;2024-02-21T09:56:59;95875.94;;;10.55
40245;BMP280;25963;42.694;23.600;2024-02-21T09:59:27;95863.75;;;10.54
40245;BMP280;25963;42.694;23.600;2024-02-21T10:01:53;95879.63;;;10.81
40245;BMP280;25963;42.694;23.600;2024-02-21T10:04:20;95808.13;;;10.76
40245;BMP280;25963;42.694;23.600;2024-02-21T10:06:45;95856.09;;;11.23
40245;BMP280;25963;42.694;23.600;2024-02-21T10:09:21;95874.53;;;11.65
40245;BMP280;25963;42.694;23.600;2024-02-21T10:11:48;95823.66;;;11.45
40245;BMP280;25963;42.694;23.600;2024-02-21T10:14:15;95821.81;;;11.51
40245;BMP280;25963;42.694;23.600;2024-02-21T10:16:40;95786.16;;;11.25
40245;BMP280;25963;42.694;23.600;2024-02-21T10:19:06;95868.88;;;11.92
40245;BMP280;25963;42.694;23.600;2024-02-21T10:21:32;95872.13;;;12.16
40245;BMP280;25963;42.694;23.600;2024-02-21T10:23:57;95867.81;;;12.19
40245;BMP280;25963;42.694;23.600;2024-02-21T10:26:22;95864.25;;;12.07
40245;BMP280;25963;42.694;23.600;2024-02-21T10:28:48;95842.53;;;12.05
40245;BMP280;25963;42.694;23.600;2024-02-21T10:31:24;95838.41;;;12.04
40245;BMP280;25963;42.694;23.600;2024-02-21T10:34:00;95840.91;;;12.07
40245;BMP280;25963;42.694;23.600;2024-02-21T10:36:28;95837.81;;;12.15
40245;BMP280;25963;42.694;23.600;2024-02-21T10:38:54;95793.94;;;11.92
40245;BMP280;25963;42.694;23.600;2024-02-21T10:41:20;95762.13;;;11.74
40245;BMP280;25963;42.694;23.600;2024-02-21T10:43:51;95794.78;;;11.98
40245;BMP280;25963;42.694;23.600;2024-02-21T10:46:23;95748.84;;;11.99
40245;BMP280;25963;42.694;23.600;2024-02-21T10:49:04;95816.75;;;12.42
40245;BMP280;25963;42.694;23.600;2024-02-21T10:51:33;95818.00;;;12.47
40245;BMP280;25963;42.694;23.600;2024-02-21T10:56:44;95807.63;;;12.54
40245;BMP280;25963;42.694;23.600;2024-02-21T10:59:13;95810.59;;;12.56
40245;BMP280;25963;42.694;23.600;2024-02-21T11:01:39;95754.91;;;12.40
40245;BMP280;25963;42.694;23.600;2024-02-21T11:04:06;95708.16;;;12.16
40245;BMP280;25963;42.694;23.600;2024-02-21T11:06:32;95741.91;;;12.59
40245;BMP280;25963;42.694;23.600;2024-02-21T11:11:29;95771.28;;;12.99
40245;BMP280;25963;42.694;23.600;2024-02-21T11:14:05;95769.59;;;13.02
40245;BMP280;25963;42.694;23.600;2024-02-21T11:16:35;95756.22;;;13.07
40245;BMP280;25963;42.694;23.600;2024-02-21T11:19:05;95767.09;;;13.24
40245;BMP280;25963;42.694;23.600;2024-02-21T11:21:37;95768.44;;;13.39
40245;BMP280;25963;42.694;23.600;2024-02-21T11:24:03;95766.44;;;13.29
40245;BMP280;25963;42.694;23.600;2024-02-21T11:26:30;95760.09;;;13.37
40245;BMP280;25963;42.694;23.600;2024-02-21T11:29:00;95757.97;;;13.41
40245;BMP280;25963;42.694;23.600;2024-02-21T11:31:26;95712.16;;;13.08
40245;BMP280;25963;42.694;23.600;2024-02-21T11:33:54;95749.50;;;13.54
40245;BMP280;25963;42.694;23.600;2024-02-21T11:36:26;95699.41;;;13.34
40245;BMP280;25963;42.694;23.600;2024-02-21T11:38:52;95663.44;;;13.10
40245;BMP280;25963;42.694;23.600;2024-02-21T11:41:21;95697.91;;;13.28
40245;BMP280;25963;42.694;23.600;2024-02-21T11:43:48;95685.44;;;13.25
40245;BMP280;25963;42.694;23.600;2024-02-21T11:46:14;95730.75;;;13.59
40245;BMP280;25963;42.694;23.600;2024-02-21T11:48:41;95736.91;;;13.71
40245;BMP280;25963;42.694;23.600;2024-02-21T11:51:09;95730.22;;;13.92
40245;BMP280;25963;42.694;23.600;2024-02-21T11:53:35;95715.53;;;13.93
40245;BMP280;25963;42.694;23.600;2024-02-21T11:56:00;95713.84;;;13.96
40245;BMP280;25963;42.694;23.600;2024-02-21T11:58:25;95715.06;;;13.95
40245;BMP280;25963;42.694;23.600;2024-02-21T12:00:52;95627.19;;;13.25
40245;BMP280;25963;42.694;23.600;2024-02-21T12:03:17;95664.28;;;13.32
40245;BMP280;25963;42.694;23.600;2024-02-21T12:05:42;95713.97;;;13.64
40245;BMP280;25963;42.694;23.600;2024-02-21T12:08:08;95652.94;;;13.12
40245;BMP280;25963;42.694;23.600;2024-02-21T12:10:35;95711.63;;;13.41
40245;BMP280;25963;42.694;23.600;2024-02-21T12:13:10;95707.97;;;13.44
40245;BMP280;25963;42.694;23.600;2024-02-21T12:15:35;95705.13;;;13.53
40245;BMP280;25963;42.694;23.600;2024-02-21T12:18:01;95620.97;;;12.97
40245;BMP280;25963;42.694;23.600;2024-02-21T12:20:26;95695.56;;;13.46
40245;BMP280;25963;42.694;23.600;2024-02-21T12:22:52;95693.31;;;13.34
40245;BMP280;25963;42.694;23.600;2024-02-21T12:25:21;95656.78;;;13.05
40245;BMP280;25963;42.694;23.600;2024-02-21T12:27:51;95606.59;;;12.63
40245;BMP280;25963;42.694;23.600;2024-02-21T12:30:17;95671.78;;;13.17
40245;BMP280;25963;42.694;23.600;2024-02-21T12:32:43;95685.47;;;13.30
40245;BMP280;25963;42.694;23.600;2024-02-21T12:35:08;95690.03;;;13.19
40245;BMP280;25963;42.694;23.600;2024-02-21T12:37:34;95682.50;;;12.86
40245;BMP280;25963;42.694;23.600;2024-02-21T12:39:59;95694.63;;;12.50
40245;BMP280;25963;42.694;23.600;2024-02-21T12:43:02;95684.38;;;12.23
40245;BMP280;25963;42.694;23.600;2024-02-21T12:45:28;95687.88;;;12.09
40245;BMP280;25963;42.694;23.600;2024-02-21T12:47:54;95683.94;;;11.84
40245;BMP280;25963;42.694;23.600;2024-02-21T12:50:19;95686.41;;;11.68
40245;BMP280;25963;42.694;23.600;2024-02-21T12:52:45;95669.94;;;11.55
40245;BMP280;25963;42.694;23.600;2024-02-21T12:55:11;95675.59;;;11.42
40245;BMP280;25963;42.694;23.600;2024-02-21T12:57:38;95683.19;;;11.44
40245;BMP280;25963;42.694;23.600;2024-02-21T13:00:04;95678.03;;;11.26
40245;BMP280;25963;42.694;23.600;2024-02-21T13:02:33;95670.69;;;11.20
40245;BMP280;25963;42.694;23.600;2024-02-21T13:04:59;95664.06;;;11.16
40245;BMP280;25963;42.694;23.600;2024-02-21T13:07:25;95672.38;;;11.03
40245;BMP280;25963;42.694;23.600;2024-02-21T13:09:50;95665.56;;;11.02
40245;BMP280;25963;42.694;23.600;2024-02-21T13:12:16;95658.22;;;10.97
40245;BMP280;25963;42.694;23.600;2024-02-21T13:14:41;95659.00;;;11.03
40245;BMP280;25963;42.694;23.600;2024-02-21T13:17:08;95658.94;;;10.98
40245;BMP280;25963;42.694;23.600;2024-02-21T13:19:34;95657.47;;;10.97
40245;BMP280;25963;42.694;23.600;2024-02-21T13:22:00;95610.47;;;10.56
40245;BMP280;25963;42.694;23.600;2024-02-21T13:24:25;95658.66;;;10.96
40245;BMP280;25963;42.694;23.600;2024-02-21T13:26:51;95655.81;;;10.99
40245;BMP280;25963;42.694;23.600;2024-02-21T13:29:16;95619.91;;;10.71
40245;BMP280;25963;42.694;23.600;2024-02-21T13:31:42;95665.75;;;11.13
40245;BMP280;25963;42.694;23.600;2024-02-21T13:34:07;95661.75;;;11.09
40245;BMP280;25963;42.694;23.600;2024-02-21T13:36:34;95663.06;;;11.13
40245;BMP280;25963;42.694;23.600;2024-02-21T13:38:59;95661.66;;;11.18
40245;BMP280;25963;42.694;23.600;2024-02-21T13:41:25;95671.41;;;11.36
40245;BMP280;25963;42.694;23.600;2024-02-21T13:43:51;95661.53;;;11.42
40245;BMP280;25963;42.694;23.600;2024-02-21T13:46:16;95663.47;;;11.41
40245;BMP280;25963;42.694;23.600;2024-02-21T13:48:41;95662.81;;;11.32
40245;BMP280;25963;42.694;23.600;2024-02-21T13:51:07;95666.63;;;11.25
40245;BMP280;25963;42.694;23.600;2024-02-21T13:53:33;95650.97;;;11.18
40245;BMP280;25963;42.694;23.600;2024-02-21T13:55:59;95661.22;;;11.19
40245;BMP280;25963;42.694;23.600;2024-02-21T13:58:25;95655.22;;;11.10
40245;BMP280;25963;42.694;23.600;2024-02-21T14:00:51;95658.38;;;11.08
40245;BMP280;25963;42.694;23.600;2024-02-21T14:03:17;95662.34;;;10.98